createdAt,value
2022-12-31T00:00:01.249Z,38.21
2022-12-31T00:01:01.235Z,37.39
2022-12-31T00:02:01.336Z,40.20
2022-12-31T00:03:01.335Z,38.06
2022-12-31T00:04:01.210Z,41.27
2022-12-31T00:05:01.196Z,40.12
2022-12-31T00:06:01.195Z,38.33
2022-12-31T00:07:01.197Z,42.68
2022-12-31T00:08:01.178Z,40.84
2022-12-31T00:09:01.177Z,41.81
2022-12-31T00:10:01.150Z,41.16
2022-12-31T00:11:01.144Z,41.09
2022-12-31T00:12:01.149Z,41.48
2022-12-31T00:13:01.122Z,38.47
2022-12-31T00:14:01.121Z,39.26
2022-12-31T00:15:01.144Z,38.84
2022-12-31T00:16:02.492Z,40.00
2022-12-31T00:17:01.121Z,39.84
2022-12-31T00:18:01.079Z,43.27
2022-12-31T00:19:01.064Z,41.64
2022-12-31T00:20:01.066Z,37.67
2022-12-31T00:21:01.051Z,41.14
2022-12-31T00:22:01.056Z,38.58
2022-12-31T00:23:01.033Z,36.25
2022-12-31T00:24:01.031Z,42.22
2022-12-31T00:25:01.027Z,38.48
2022-12-31T00:26:01.000Z,41.58
2022-12-31T00:27:02.012Z,38.26
2022-12-31T00:28:01.063Z,40.79
2022-12-31T00:29:00.983Z,39.38
2022-12-31T00:30:04.679Z,41.11
2022-12-31T00:31:02.009Z,37.95
2022-12-31T00:32:00.963Z,41.30
2022-12-31T00:33:00.944Z,39.26
2022-12-31T00:34:00.940Z,37.65
2022-12-31T00:35:00.937Z,38.38
2022-12-31T00:36:00.918Z,36.80
2022-12-31T00:37:00.918Z,36.84
2022-12-31T00:38:00.898Z,40.22
2022-12-31T00:39:00.896Z,40.56
2022-12-31T00:40:00.884Z,41.18
2022-12-31T00:41:00.873Z,39.69
2022-12-31T00:42:00.999Z,38.14
2022-12-31T00:43:00.857Z,37.10
2022-12-31T00:44:00.844Z,40.98
2022-12-31T00:45:00.831Z,38.78
2022-12-31T00:46:00.879Z,38.10
2022-12-31T00:47:00.838Z,40.76
2022-12-31T00:48:00.808Z,43.32
2022-12-31T00:49:00.797Z,38.88
2022-12-31T00:50:00.795Z,43.19
2022-12-31T00:51:00.776Z,39.55
2022-12-31T00:52:00.788Z,41.46
2022-12-31T00:53:00.769Z,40.14
2022-12-31T00:54:00.759Z,38.73
2022-12-31T00:55:00.746Z,40.34
2022-12-31T00:56:00.738Z,41.87
2022-12-31T00:57:00.733Z,42.44
2022-12-31T00:58:00.714Z,37.12
2022-12-31T00:59:00.726Z,40.06
2022-12-31T01:00:00.736Z,41.92
2022-12-31T01:01:00.797Z,38.36
2022-12-31T01:02:00.808Z,40.71
2022-12-31T01:03:00.773Z,39.55
2022-12-31T01:04:00.660Z,38.31
2022-12-31T01:05:00.651Z,38.84
2022-12-31T01:06:00.646Z,41.50
2022-12-31T01:07:00.639Z,40.05
2022-12-31T01:08:00.626Z,39.90
2022-12-31T01:09:00.620Z,37.83
2022-12-31T01:10:00.605Z,39.16
2022-12-31T01:11:00.600Z,40.03
2022-12-31T01:12:00.600Z,36.84
2022-12-31T01:13:00.580Z,39.55
2022-12-31T01:14:00.566Z,41.37
2022-12-31T01:15:00.575Z,39.94
2022-12-31T01:16:00.577Z,40.64
2022-12-31T01:17:00.534Z,36.96
2022-12-31T01:18:00.540Z,40.91
2022-12-31T01:19:00.513Z,40.47
2022-12-31T01:20:00.505Z,38.75
2022-12-31T01:21:00.500Z,40.35
2022-12-31T01:22:00.504Z,38.57
2022-12-31T01:23:00.482Z,40.22
2022-12-31T01:24:00.473Z,36.72
2022-12-31T01:25:00.464Z,38.82
2022-12-31T01:26:00.450Z,38.14
2022-12-31T01:27:00.452Z,38.99
2022-12-31T01:28:00.447Z,36.84
2022-12-31T01:29:00.426Z,38.24
2022-12-31T01:30:00.418Z,38.50
2022-12-31T01:31:00.420Z,40.41
2022-12-31T01:32:00.424Z,39.50
2022-12-31T01:33:00.387Z,38.88
2022-12-31T01:34:00.399Z,37.96
2022-12-31T01:35:00.379Z,38.57
2022-12-31T01:36:00.358Z,41.63
2022-12-31T01:37:00.354Z,40.21
2022-12-31T01:38:00.359Z,38.96
2022-12-31T01:39:00.354Z,35.21
2022-12-31T01:40:00.321Z,40.56
2022-12-31T01:41:00.318Z,39.41
2022-12-31T01:42:00.307Z,38.86
2022-12-31T01:43:00.309Z,39.01
2022-12-31T01:44:00.292Z,40.35
2022-12-31T01:45:00.308Z,37.33
2022-12-31T01:46:00.317Z,40.07
2022-12-31T01:47:00.258Z,36.22
2022-12-31T01:48:00.262Z,38.63
2022-12-31T01:49:00.246Z,37.04
2022-12-31T01:50:00.236Z,36.42
2022-12-31T01:51:00.215Z,38.86
2022-12-31T01:52:00.212Z,37.00
2022-12-31T01:53:00.206Z,39.76
2022-12-31T01:54:00.196Z,36.93
2022-12-31T01:55:00.229Z,39.56
2022-12-31T01:56:00.181Z,38.26
2022-12-31T01:57:00.166Z,38.96
2022-12-31T01:58:00.160Z,38.93
2022-12-31T01:59:00.139Z,38.57
2022-12-31T02:00:00.150Z,38.89
2022-12-31T02:01:00.178Z,41.05
2022-12-31T02:02:00.239Z,38.32
2022-12-31T02:03:00.190Z,37.42
2022-12-31T02:04:00.138Z,39.39
2022-12-31T02:05:00.127Z,38.73
2022-12-31T02:06:00.086Z,37.31
2022-12-31T02:07:00.096Z,35.92
2022-12-31T02:08:00.071Z,37.50
2022-12-31T02:09:00.042Z,40.99
2022-12-31T02:10:00.037Z,39.18
2022-12-31T02:11:00.039Z,39.81
2022-12-31T02:12:00.033Z,40.22
2022-12-31T02:13:00.035Z,40.27
2022-12-31T02:13:59.995Z,37.30
2022-12-31T02:14:59.988Z,39.66
2022-12-31T02:16:00.014Z,38.53
2022-12-31T02:16:59.971Z,40.39
2022-12-31T02:17:59.974Z,38.61
2022-12-31T02:18:59.956Z,39.16
2022-12-31T02:19:59.950Z,40.16
2022-12-31T02:20:59.935Z,38.23
2022-12-31T02:21:59.924Z,37.62
2022-12-31T02:22:59.925Z,38.68
2022-12-31T02:23:59.903Z,39.48
2022-12-31T02:24:59.898Z,37.82
2022-12-31T02:25:59.880Z,38.94
2022-12-31T02:26:59.868Z,42.01
2022-12-31T02:27:59.870Z,41.18
2022-12-31T02:28:59.853Z,39.05
2022-12-31T02:29:59.839Z,40.99
2022-12-31T02:30:59.856Z,37.50
2022-12-31T02:31:59.819Z,39.52
2022-12-31T02:33:02.350Z,37.94
2022-12-31T02:33:59.797Z,39.54
2022-12-31T02:34:59.812Z,40.41
2022-12-31T02:35:59.776Z,40.18
2022-12-31T02:36:59.770Z,40.05
2022-12-31T02:37:59.769Z,40.54
2022-12-31T02:38:59.759Z,39.49
2022-12-31T02:39:59.743Z,38.32
2022-12-31T02:40:59.748Z,38.35
2022-12-31T02:41:59.723Z,41.17
2022-12-31T02:42:59.729Z,38.21
2022-12-31T02:43:59.701Z,40.61
2022-12-31T02:45:00.735Z,39.81
2022-12-31T02:45:59.685Z,40.83
2022-12-31T02:46:59.675Z,43.31
2022-12-31T02:47:59.684Z,40.12
2022-12-31T02:48:59.656Z,40.43
2022-12-31T02:49:59.651Z,40.64
2022-12-31T02:50:59.639Z,38.24
2022-12-31T02:51:59.627Z,39.41
2022-12-31T02:52:59.635Z,39.07
2022-12-31T02:53:59.604Z,41.34
2022-12-31T02:54:59.650Z,40.49
2022-12-31T02:55:59.591Z,41.09
2022-12-31T02:56:59.601Z,39.87
2022-12-31T02:57:59.582Z,39.60
2022-12-31T02:58:59.565Z,37.03
2022-12-31T02:59:59.557Z,39.78
2022-12-31T03:00:59.776Z,40.33
2022-12-31T03:01:59.639Z,39.71
2022-12-31T03:02:59.520Z,39.74
2022-12-31T03:04:00.508Z,42.41
2022-12-31T03:04:59.512Z,39.19
2022-12-31T03:05:59.491Z,37.92
2022-12-31T03:06:59.569Z,40.30
2022-12-31T03:07:59.484Z,39.01
2022-12-31T03:08:59.470Z,39.21
2022-12-31T03:09:59.471Z,40.27
2022-12-31T03:10:59.445Z,40.71
2022-12-31T03:11:59.435Z,40.92
2022-12-31T03:12:59.441Z,39.51
2022-12-31T03:13:59.416Z,44.07
2022-12-31T03:14:59.406Z,38.34
2022-12-31T03:15:59.407Z,41.20
2022-12-31T03:16:59.386Z,38.40
2022-12-31T03:17:59.395Z,39.24
2022-12-31T03:18:59.374Z,40.46
2022-12-31T03:19:59.376Z,40.33
2022-12-31T03:20:59.367Z,38.94
2022-12-31T03:21:59.341Z,39.92
2022-12-31T03:22:59.341Z,38.75
2022-12-31T03:23:59.321Z,40.03
2022-12-31T03:24:59.308Z,38.08
2022-12-31T03:25:59.297Z,38.66
2022-12-31T03:26:59.325Z,39.19
2022-12-31T03:27:59.287Z,39.88
2022-12-31T03:28:59.268Z,38.89
2022-12-31T03:29:59.303Z,39.79
2022-12-31T03:30:59.400Z,38.66
2022-12-31T03:31:59.242Z,40.94
2022-12-31T03:32:59.253Z,38.21
2022-12-31T03:33:59.219Z,39.33
2022-12-31T03:34:59.211Z,39.46
2022-12-31T03:35:59.198Z,39.02
2022-12-31T03:36:59.193Z,39.98
2022-12-31T03:37:59.196Z,38.26
2022-12-31T03:39:31.586Z,39.31
2022-12-31T03:39:59.240Z,39.38
2022-12-31T03:40:59.177Z,39.38
2022-12-31T03:41:59.199Z,40.63
2022-12-31T03:42:59.189Z,40.71
2022-12-31T03:43:59.169Z,39.88
2022-12-31T03:44:59.137Z,41.94
2022-12-31T03:45:59.176Z,39.18
2022-12-31T03:47:00.123Z,37.85
2022-12-31T03:47:59.121Z,39.88
2022-12-31T03:48:59.085Z,40.55
2022-12-31T03:49:59.074Z,39.34
2022-12-31T03:50:59.064Z,39.64
2022-12-31T03:51:59.071Z,37.69
2022-12-31T03:52:59.059Z,39.05
2022-12-31T03:53:59.051Z,39.71
2022-12-31T03:54:59.017Z,42.01
2022-12-31T03:55:59.019Z,36.56
2022-12-31T03:57:00.397Z,38.92
2022-12-31T03:58:00.034Z,38.30
2022-12-31T03:58:59.040Z,38.88
2022-12-31T03:59:58.974Z,39.80
2022-12-31T04:00:59.100Z,38.23
2022-12-31T04:01:59.062Z,36.67
2022-12-31T04:02:58.977Z,39.80
2022-12-31T04:03:58.939Z,38.21
2022-12-31T04:04:58.925Z,41.37
2022-12-31T04:05:58.925Z,39.15
2022-12-31T04:06:58.923Z,40.20
2022-12-31T04:07:58.913Z,40.06
2022-12-31T04:08:58.885Z,39.02
2022-12-31T04:09:58.882Z,38.09
2022-12-31T04:10:58.871Z,38.59
2022-12-31T04:11:58.867Z,38.74
2022-12-31T04:12:58.858Z,41.95
2022-12-31T04:13:58.836Z,39.99
2022-12-31T04:14:58.836Z,38.40
2022-12-31T04:15:58.892Z,41.59
2022-12-31T04:16:58.801Z,41.33
2022-12-31T04:17:58.806Z,39.30
2022-12-31T04:18:58.778Z,38.99
2022-12-31T04:19:58.774Z,38.28
2022-12-31T04:20:58.770Z,40.12
2022-12-31T04:21:58.749Z,37.61
2022-12-31T04:22:58.764Z,41.54
2022-12-31T04:23:58.734Z,40.62
2022-12-31T04:24:58.732Z,39.15
2022-12-31T04:25:58.712Z,35.29
2022-12-31T04:27:03.554Z,38.87
2022-12-31T04:28:00.705Z,37.68
2022-12-31T04:28:58.694Z,37.68
2022-12-31T04:29:58.691Z,40.22
2022-12-31T04:30:58.666Z,37.42
2022-12-31T04:31:58.688Z,41.36
2022-12-31T04:32:58.656Z,39.00
2022-12-31T04:33:58.635Z,42.07
2022-12-31T04:34:58.627Z,37.05
2022-12-31T04:35:58.612Z,38.91
2022-12-31T04:36:58.623Z,41.02
2022-12-31T04:37:58.608Z,41.60
2022-12-31T04:38:58.594Z,41.71
2022-12-31T04:40:05.146Z,41.35
2022-12-31T04:41:00.578Z,40.26
2022-12-31T04:41:58.560Z,41.39
2022-12-31T04:42:58.577Z,38.61
2022-12-31T04:43:58.540Z,41.14
2022-12-31T04:44:58.525Z,40.95
2022-12-31T04:45:58.561Z,40.25
2022-12-31T04:46:58.508Z,39.75
2022-12-31T04:47:58.509Z,40.51
2022-12-31T04:48:58.479Z,40.63
2022-12-31T04:49:58.481Z,39.54
2022-12-31T04:50:58.467Z,41.42
2022-12-31T04:51:59.467Z,40.55
2022-12-31T04:52:58.480Z,38.89
2022-12-31T04:53:58.441Z,39.16
2022-12-31T04:54:58.417Z,39.97
2022-12-31T04:55:58.422Z,39.76
2022-12-31T04:56:58.405Z,39.86
2022-12-31T04:57:58.394Z,40.09
2022-12-31T04:58:58.392Z,37.68
2022-12-31T04:59:58.374Z,39.77
2022-12-31T05:00:58.458Z,39.31
2022-12-31T05:01:58.551Z,41.04
2022-12-31T05:02:58.357Z,40.85
2022-12-31T05:03:58.343Z,37.99
2022-12-31T05:04:58.334Z,40.43
2022-12-31T05:05:58.322Z,40.59
2022-12-31T05:06:58.348Z,39.55
2022-12-31T05:07:58.287Z,40.60
2022-12-31T05:08:58.296Z,40.18
2022-12-31T05:09:58.271Z,41.51
2022-12-31T05:10:58.268Z,39.65
2022-12-31T05:11:58.275Z,38.36
2022-12-31T05:12:58.260Z,41.22
2022-12-31T05:13:58.251Z,43.06
2022-12-31T05:14:58.243Z,38.81
2022-12-31T05:15:58.205Z,39.31
2022-12-31T05:16:58.275Z,41.08
2022-12-31T05:17:58.181Z,42.21
2022-12-31T05:18:58.204Z,39.72
2022-12-31T05:19:58.232Z,40.37
2022-12-31T05:20:58.164Z,39.38
2022-12-31T05:21:58.200Z,42.38
2022-12-31T05:22:58.150Z,39.57
2022-12-31T05:23:58.178Z,41.48
2022-12-31T05:24:58.135Z,39.92
2022-12-31T05:25:58.190Z,39.88
2022-12-31T05:26:58.101Z,39.67
2022-12-31T05:27:58.167Z,40.64
2022-12-31T05:28:58.095Z,39.12
2022-12-31T05:29:58.074Z,40.50
2022-12-31T05:30:58.124Z,41.60
2022-12-31T05:31:58.083Z,38.84
2022-12-31T05:32:58.063Z,40.11
2022-12-31T05:33:58.077Z,41.24
2022-12-31T05:34:58.062Z,39.63
2022-12-31T05:35:58.004Z,39.58
2022-12-31T05:36:58.008Z,39.86
2022-12-31T05:37:58.006Z,42.64
2022-12-31T05:38:57.981Z,41.67
2022-12-31T05:39:57.971Z,41.90
2022-12-31T05:40:57.992Z,39.01
2022-12-31T05:41:57.959Z,41.70
2022-12-31T05:42:57.933Z,39.50
2022-12-31T05:43:57.963Z,39.73
2022-12-31T05:44:57.924Z,39.73
2022-12-31T05:45:57.983Z,40.28
2022-12-31T05:46:57.911Z,39.24
2022-12-31T05:47:57.934Z,41.97
2022-12-31T05:48:57.908Z,40.83
2022-12-31T05:49:57.874Z,41.24
2022-12-31T05:50:57.852Z,41.44
2022-12-31T05:51:57.852Z,42.03
2022-12-31T05:52:57.861Z,39.59
2022-12-31T05:53:57.870Z,39.45
2022-12-31T05:54:57.825Z,37.39
2022-12-31T05:55:57.803Z,40.59
2022-12-31T05:56:57.875Z,43.21
2022-12-31T05:57:57.817Z,39.07
2022-12-31T05:58:57.793Z,42.10
2022-12-31T05:59:57.776Z,38.41
2022-12-31T06:00:57.777Z,38.96
2022-12-31T06:01:57.755Z,40.58
2022-12-31T06:02:57.808Z,41.86
2022-12-31T06:03:57.743Z,40.95
2022-12-31T06:04:57.711Z,37.69
2022-12-31T06:05:57.711Z,40.58
2022-12-31T06:06:57.743Z,38.82
2022-12-31T06:07:57.676Z,41.88
2022-12-31T06:08:57.721Z,37.04
2022-12-31T06:09:57.700Z,42.11
2022-12-31T06:10:57.649Z,41.75
2022-12-31T06:11:57.666Z,42.83
2022-12-31T06:12:57.648Z,40.93
2022-12-31T06:13:57.662Z,40.98
2022-12-31T06:14:57.608Z,41.44
2022-12-31T06:15:57.684Z,40.25
2022-12-31T06:16:57.585Z,37.91
2022-12-31T06:17:57.586Z,39.14
2022-12-31T06:18:57.585Z,42.77
2022-12-31T06:19:57.568Z,39.03
2022-12-31T06:20:57.570Z,38.03
2022-12-31T06:21:57.560Z,39.13
2022-12-31T06:22:57.539Z,38.47
2022-12-31T06:23:57.591Z,42.15
2022-12-31T06:24:57.532Z,38.38
2022-12-31T06:25:57.522Z,39.32
2022-12-31T06:26:57.519Z,39.82
2022-12-31T06:27:57.508Z,40.90
2022-12-31T06:28:57.479Z,44.11
2022-12-31T06:29:57.464Z,40.85
2022-12-31T06:30:57.490Z,41.99
2022-12-31T06:31:57.473Z,42.59
2022-12-31T06:32:57.427Z,39.29
2022-12-31T06:33:57.448Z,42.48
2022-12-31T06:34:57.426Z,37.48
2022-12-31T06:35:57.407Z,41.77
2022-12-31T06:36:57.387Z,41.69
2022-12-31T06:37:57.380Z,40.68
2022-12-31T06:38:57.456Z,39.67
2022-12-31T06:39:57.364Z,41.05
2022-12-31T06:40:57.378Z,41.28
2022-12-31T06:41:57.352Z,39.08
2022-12-31T06:43:00.084Z,40.17
2022-12-31T06:43:58.520Z,40.18
2022-12-31T06:44:57.306Z,42.05
2022-12-31T06:45:57.289Z,41.67
2022-12-31T06:46:57.292Z,37.45
2022-12-31T06:47:57.284Z,37.93
2022-12-31T06:48:57.287Z,41.22
2022-12-31T06:49:57.269Z,42.14
2022-12-31T06:50:57.253Z,40.60
2022-12-31T06:51:57.239Z,40.70
2022-12-31T06:52:57.217Z,39.14
2022-12-31T06:53:57.224Z,40.57
2022-12-31T06:54:57.213Z,41.45
2022-12-31T06:55:57.201Z,41.41
2022-12-31T06:56:57.183Z,41.01
2022-12-31T06:57:58.235Z,40.61
2022-12-31T06:58:57.173Z,38.76
2022-12-31T06:59:57.169Z,40.43
2022-12-31T07:00:57.158Z,39.03
2022-12-31T07:01:57.324Z,40.19
2022-12-31T07:02:57.193Z,41.01
2022-12-31T07:03:58.154Z,38.73
2022-12-31T07:04:57.113Z,39.57
2022-12-31T07:05:57.116Z,41.16
2022-12-31T07:06:58.076Z,42.90
2022-12-31T07:07:57.077Z,40.90
2022-12-31T07:08:57.062Z,39.90
2022-12-31T07:09:57.043Z,40.07
2022-12-31T07:10:57.024Z,38.93
2022-12-31T07:11:57.023Z,40.21
2022-12-31T07:12:57.024Z,43.54
2022-12-31T07:13:57.031Z,40.39
2022-12-31T07:14:56.983Z,36.87
2022-12-31T07:15:57.013Z,41.72
2022-12-31T07:16:56.972Z,41.67
2022-12-31T07:17:56.953Z,38.96
2022-12-31T07:18:57.029Z,42.13
2022-12-31T07:19:57.919Z,41.06
2022-12-31T07:20:57.944Z,41.67
2022-12-31T07:21:56.917Z,39.31
2022-12-31T07:22:56.909Z,43.13
2022-12-31T07:23:56.912Z,40.79
2022-12-31T07:24:56.892Z,42.22
2022-12-31T07:25:56.875Z,41.09
2022-12-31T07:26:57.262Z,39.63
2022-12-31T07:27:56.856Z,40.78
2022-12-31T07:28:56.857Z,42.31
2022-12-31T07:29:56.852Z,39.21
2022-12-31T07:30:56.879Z,40.08
2022-12-31T07:31:56.814Z,39.40
2022-12-31T07:32:56.854Z,41.86
2022-12-31T07:33:56.844Z,42.70
2022-12-31T07:34:56.788Z,40.87
2022-12-31T07:35:56.781Z,38.57
2022-12-31T07:36:56.767Z,41.64
2022-12-31T07:37:56.747Z,41.46
2022-12-31T07:38:56.754Z,40.79
2022-12-31T07:39:56.753Z,42.70
2022-12-31T07:40:57.893Z,42.54
2022-12-31T07:41:57.742Z,40.30
2022-12-31T07:42:56.697Z,42.62
2022-12-31T07:43:56.718Z,40.93
2022-12-31T07:44:56.701Z,39.11
2022-12-31T07:45:56.681Z,42.78
2022-12-31T07:46:56.844Z,41.71
2022-12-31T07:48:02.296Z,39.71
2022-12-31T07:48:58.668Z,40.09
2022-12-31T07:49:56.641Z,41.57
2022-12-31T07:50:56.640Z,42.03
2022-12-31T07:51:56.633Z,41.24
2022-12-31T07:52:56.734Z,42.27
2022-12-31T07:53:56.602Z,42.14
2022-12-31T07:54:56.639Z,41.98
2022-12-31T07:55:56.589Z,42.84
2022-12-31T07:56:56.565Z,41.23
2022-12-31T07:57:56.586Z,41.71
2022-12-31T07:58:56.536Z,38.74
2022-12-31T07:59:56.623Z,40.62
2022-12-31T08:00:56.612Z,42.63
2022-12-31T08:01:56.760Z,42.11
2022-12-31T08:02:56.579Z,41.37
2022-12-31T08:03:56.565Z,43.50
2022-12-31T08:04:56.534Z,43.05
2022-12-31T08:05:56.510Z,40.84
2022-12-31T08:06:56.489Z,41.71
2022-12-31T08:07:56.441Z,39.75
2022-12-31T08:08:56.449Z,42.46
2022-12-31T08:09:56.464Z,40.62
2022-12-31T08:10:56.410Z,42.19
2022-12-31T08:11:56.448Z,43.31
2022-12-31T08:12:56.414Z,39.88
2022-12-31T08:13:56.394Z,42.23
2022-12-31T08:14:56.396Z,41.62
2022-12-31T08:15:56.501Z,43.02
2022-12-31T08:16:56.360Z,41.21
2022-12-31T08:17:56.418Z,41.74
2022-12-31T08:18:56.365Z,43.40
2022-12-31T08:19:56.351Z,42.60
2022-12-31T08:20:56.313Z,40.82
2022-12-31T08:21:56.292Z,42.70
2022-12-31T08:22:56.296Z,40.80
2022-12-31T08:23:56.310Z,41.60
2022-12-31T08:24:56.306Z,40.28
2022-12-31T08:25:56.259Z,40.50
2022-12-31T08:26:56.251Z,43.00
2022-12-31T08:27:56.296Z,44.56
2022-12-31T08:28:56.223Z,42.44
2022-12-31T08:29:56.237Z,41.98
2022-12-31T08:30:56.201Z,42.64
2022-12-31T08:31:56.232Z,41.87
2022-12-31T08:32:56.178Z,42.65
2022-12-31T08:33:59.354Z,41.46
2022-12-31T08:34:57.173Z,40.63
2022-12-31T08:35:56.217Z,42.13
2022-12-31T08:36:56.151Z,44.31
2022-12-31T08:37:56.134Z,41.85
2022-12-31T08:38:56.232Z,41.88
2022-12-31T08:39:56.136Z,43.29
2022-12-31T08:40:56.104Z,41.43
2022-12-31T08:41:56.096Z,41.96
2022-12-31T08:42:56.075Z,41.82
2022-12-31T08:43:56.083Z,40.79
2022-12-31T08:44:56.181Z,42.64
2022-12-31T08:45:56.081Z,44.08
2022-12-31T08:46:56.028Z,40.88
2022-12-31T08:47:59.818Z,42.80
2022-12-31T08:48:57.032Z,42.95
2022-12-31T08:49:56.017Z,42.09
2022-12-31T08:50:56.121Z,45.10
2022-12-31T08:51:55.973Z,42.37
2022-12-31T08:52:56.011Z,43.53
2022-12-31T08:53:55.970Z,39.52
2022-12-31T08:54:55.963Z,40.75
2022-12-31T08:55:55.941Z,43.22
2022-12-31T08:56:55.955Z,41.65
2022-12-31T08:57:55.914Z,43.81
2022-12-31T08:58:55.956Z,42.98
2022-12-31T08:59:55.901Z,44.43
2022-12-31T09:00:56.043Z,42.17
2022-12-31T09:01:56.025Z,42.38
2022-12-31T09:02:55.881Z,43.49
2022-12-31T09:03:55.939Z,42.24
2022-12-31T09:04:55.863Z,40.99
2022-12-31T09:05:55.875Z,42.59
2022-12-31T09:06:55.844Z,40.18
2022-12-31T09:07:55.815Z,41.97
2022-12-31T09:08:55.846Z,44.07
2022-12-31T09:09:55.844Z,41.85
2022-12-31T09:10:55.859Z,41.58
2022-12-31T09:11:55.783Z,42.97
2022-12-31T09:12:55.761Z,41.06
2022-12-31T09:13:55.767Z,42.02
2022-12-31T09:14:55.793Z,42.10
2022-12-31T09:15:55.754Z,42.16
2022-12-31T09:16:55.759Z,40.94
2022-12-31T09:17:55.757Z,43.25
2022-12-31T09:18:55.800Z,43.41
2022-12-31T09:19:55.706Z,43.21
2022-12-31T09:20:55.685Z,42.29
2022-12-31T09:21:55.679Z,43.33
2022-12-31T09:22:55.664Z,42.12
2022-12-31T09:23:55.756Z,43.58
2022-12-31T09:24:55.654Z,43.08
2022-12-31T09:25:55.713Z,42.60
2022-12-31T09:26:55.609Z,41.96
2022-12-31T09:27:55.699Z,40.61
2022-12-31T09:28:55.636Z,43.08
2022-12-31T09:29:55.632Z,43.24
2022-12-31T09:30:55.610Z,42.96
2022-12-31T09:31:55.650Z,41.48
2022-12-31T09:33:00.735Z,42.70
2022-12-31T09:33:57.581Z,43.23
2022-12-31T09:34:55.605Z,43.32
2022-12-31T09:35:55.543Z,41.62
2022-12-31T09:36:55.540Z,42.66
2022-12-31T09:37:55.546Z,43.37
2022-12-31T09:39:27.708Z,43.67
2022-12-31T09:39:55.480Z,43.69
2022-12-31T09:40:55.472Z,43.89
2022-12-31T09:41:55.463Z,43.73
2022-12-31T09:42:55.439Z,43.17
2022-12-31T09:44:00.769Z,45.10
2022-12-31T09:44:57.432Z,42.26
2022-12-31T09:45:55.471Z,42.85
2022-12-31T09:46:55.403Z,42.51
2022-12-31T09:47:55.391Z,45.47
2022-12-31T09:48:55.400Z,42.35
2022-12-31T09:49:55.384Z,42.10
2022-12-31T09:50:56.363Z,41.90
2022-12-31T09:51:55.360Z,42.74
2022-12-31T09:52:55.344Z,42.57
2022-12-31T09:53:55.332Z,43.05
2022-12-31T09:54:55.341Z,42.19
2022-12-31T09:55:55.311Z,42.07
2022-12-31T09:56:59.026Z,42.29
2022-12-31T09:57:56.292Z,42.06
2022-12-31T09:58:55.282Z,43.27
2022-12-31T09:59:55.286Z,43.72
2022-12-31T10:00:55.283Z,42.71
2022-12-31T10:01:55.357Z,43.43
2022-12-31T10:02:55.284Z,42.34
2022-12-31T10:03:55.238Z,42.68
2022-12-31T10:04:55.231Z,43.29
2022-12-31T10:05:55.208Z,42.45
2022-12-31T10:06:55.198Z,43.82
2022-12-31T10:07:55.192Z,43.36
2022-12-31T10:08:55.175Z,43.72
2022-12-31T10:09:55.179Z,42.64
2022-12-31T10:10:55.160Z,43.54
2022-12-31T10:11:55.143Z,43.39
2022-12-31T10:12:55.141Z,43.01
2022-12-31T10:13:55.126Z,43.08
2022-12-31T10:14:55.123Z,42.12
2022-12-31T10:15:55.105Z,42.49
2022-12-31T10:16:55.130Z,43.67
2022-12-31T10:17:55.085Z,43.85
2022-12-31T10:18:55.082Z,43.23
2022-12-31T10:19:55.085Z,42.73
2022-12-31T10:20:55.058Z,43.21
2022-12-31T10:21:55.044Z,42.66
2022-12-31T10:22:55.029Z,42.48
2022-12-31T10:23:55.014Z,43.45
2022-12-31T10:24:55.007Z,44.93
2022-12-31T10:25:56.005Z,44.27
2022-12-31T10:26:54.985Z,42.79
2022-12-31T10:27:54.983Z,43.98
2022-12-31T10:28:54.968Z,42.83
2022-12-31T10:29:55.051Z,44.15
2022-12-31T10:30:55.003Z,43.39
2022-12-31T10:31:54.945Z,43.06
2022-12-31T10:32:54.923Z,42.19
2022-12-31T10:33:54.910Z,43.66
2022-12-31T10:34:54.914Z,44.97
2022-12-31T10:35:54.897Z,40.44
2022-12-31T10:36:54.892Z,44.21
2022-12-31T10:37:54.875Z,43.86
2022-12-31T10:38:54.859Z,43.07
2022-12-31T10:39:54.861Z,46.44
2022-12-31T10:40:54.838Z,43.55
2022-12-31T10:41:54.827Z,43.20
2022-12-31T10:42:54.833Z,42.52
2022-12-31T10:43:54.812Z,42.87
2022-12-31T10:44:54.804Z,43.26
2022-12-31T10:45:54.806Z,43.82
2022-12-31T10:46:54.781Z,42.42
2022-12-31T10:47:54.770Z,42.83
2022-12-31T10:48:54.765Z,45.40
2022-12-31T10:49:54.767Z,43.61
2022-12-31T10:50:54.771Z,44.00
2022-12-31T10:51:54.735Z,44.78
2022-12-31T10:52:54.718Z,44.22
2022-12-31T10:53:54.719Z,44.32
2022-12-31T10:54:54.706Z,43.47
2022-12-31T10:55:54.706Z,45.12
2022-12-31T10:56:54.674Z,45.99
2022-12-31T10:57:58.713Z,43.40
2022-12-31T10:58:56.654Z,43.78
2022-12-31T10:59:54.639Z,43.90
2022-12-31T11:00:55.645Z,44.46
2022-12-31T11:01:54.712Z,43.92
2022-12-31T11:02:54.697Z,44.30
2022-12-31T11:03:54.601Z,44.31
2022-12-31T11:04:54.611Z,43.37
2022-12-31T11:05:54.588Z,44.23
2022-12-31T11:06:54.579Z,45.60
2022-12-31T11:07:54.605Z,45.51
2022-12-31T11:08:54.555Z,44.20
2022-12-31T11:09:54.578Z,44.01
2022-12-31T11:10:54.526Z,44.64
2022-12-31T11:11:54.518Z,43.96
2022-12-31T11:12:54.507Z,44.25
2022-12-31T11:13:54.496Z,46.41
2022-12-31T11:14:54.494Z,44.13
2022-12-31T11:15:54.511Z,43.00
2022-12-31T11:16:54.466Z,42.56
2022-12-31T11:17:54.461Z,42.33
2022-12-31T11:18:54.497Z,44.42
2022-12-31T11:19:54.446Z,44.46
2022-12-31T11:20:54.420Z,44.05
2022-12-31T11:21:54.419Z,45.39
2022-12-31T11:22:54.408Z,44.81
2022-12-31T11:23:54.395Z,43.82
2022-12-31T11:24:54.381Z,43.01
2022-12-31T11:25:54.379Z,43.33
2022-12-31T11:26:54.370Z,45.55
2022-12-31T11:27:54.355Z,45.49
2022-12-31T11:28:54.334Z,43.55
2022-12-31T11:29:54.349Z,46.32
2022-12-31T11:30:54.355Z,44.45
2022-12-31T11:31:54.307Z,41.98
2022-12-31T11:32:54.298Z,45.06
2022-12-31T11:33:54.291Z,45.36
2022-12-31T11:34:54.274Z,44.95
2022-12-31T11:35:54.279Z,43.81
2022-12-31T11:36:54.257Z,45.13
2022-12-31T11:37:54.245Z,44.73
2022-12-31T11:38:54.242Z,45.27
2022-12-31T11:39:54.241Z,44.66
2022-12-31T11:40:54.244Z,44.13
2022-12-31T11:41:54.214Z,43.28
2022-12-31T11:42:54.195Z,45.44
2022-12-31T11:43:54.181Z,45.19
2022-12-31T11:44:54.173Z,44.42
2022-12-31T11:45:54.176Z,44.56
2022-12-31T11:46:54.155Z,44.33
2022-12-31T11:48:29.193Z,46.45
2022-12-31T11:48:56.135Z,44.98
2022-12-31T11:49:54.122Z,45.69
2022-12-31T11:50:54.122Z,43.87
2022-12-31T11:51:54.098Z,43.52
2022-12-31T11:52:54.101Z,43.88
2022-12-31T11:53:54.083Z,45.59
2022-12-31T11:54:54.077Z,44.73
2022-12-31T11:55:54.071Z,46.24
2022-12-31T11:56:54.049Z,46.23
2022-12-31T11:57:54.037Z,46.63
2022-12-31T11:58:54.031Z,45.37
2022-12-31T11:59:54.022Z,45.28
2022-12-31T12:00:54.024Z,43.74
2022-12-31T12:01:54.003Z,45.69
2022-12-31T12:02:54.065Z,45.13
2022-12-31T12:03:54.043Z,44.71
2022-12-31T12:04:53.965Z,45.30
2022-12-31T12:05:53.972Z,44.72
2022-12-31T12:06:53.951Z,44.43
2022-12-31T12:07:53.940Z,44.49
2022-12-31T12:08:53.930Z,46.97
2022-12-31T12:09:53.919Z,45.60
2022-12-31T12:10:53.918Z,44.19
2022-12-31T12:11:53.896Z,45.35
2022-12-31T12:12:53.887Z,45.63
2022-12-31T12:13:53.892Z,45.27
2022-12-31T12:14:53.956Z,45.32
2022-12-31T12:15:53.930Z,46.63
2022-12-31T12:16:55.807Z,46.17
2022-12-31T12:17:54.842Z,44.31
2022-12-31T12:18:53.830Z,46.60
2022-12-31T12:19:53.820Z,46.92
2022-12-31T12:20:53.819Z,45.91
2022-12-31T12:21:53.794Z,47.23
2022-12-31T12:22:53.911Z,46.65
2022-12-31T12:23:53.814Z,44.59
2022-12-31T12:24:53.835Z,45.72
2022-12-31T12:25:53.782Z,45.43
2022-12-31T12:26:53.751Z,44.57
2022-12-31T12:27:53.734Z,44.51
2022-12-31T12:28:53.726Z,47.78
2022-12-31T12:29:53.725Z,46.12
2022-12-31T12:30:53.710Z,47.26
2022-12-31T12:31:53.696Z,46.73
2022-12-31T12:32:53.681Z,45.62
2022-12-31T12:33:53.682Z,45.19
2022-12-31T12:34:53.676Z,45.43
2022-12-31T12:35:53.664Z,46.37
2022-12-31T12:36:53.647Z,45.72
2022-12-31T12:37:53.633Z,45.68
2022-12-31T12:38:53.614Z,45.98
2022-12-31T12:39:53.616Z,45.61
2022-12-31T12:40:53.605Z,44.74
2022-12-31T12:41:53.627Z,47.22
2022-12-31T12:42:53.579Z,46.88
2022-12-31T12:43:53.571Z,47.28
2022-12-31T12:44:53.556Z,47.46
2022-12-31T12:45:53.562Z,45.82
2022-12-31T12:46:53.587Z,46.43
2022-12-31T12:47:53.534Z,45.37
2022-12-31T12:48:53.516Z,45.00
2022-12-31T12:49:53.513Z,46.01
2022-12-31T12:50:53.508Z,48.03
2022-12-31T12:51:53.493Z,46.06